Time,TemperatureF,DewpointF,PressureIn,WindDirection,WindDirectionDegrees,WindSpeedMPH,WindSpeedGustMPH,Humidity,HourlyPrecipIn,Conditions,Clouds,dailyrainin,SolarRadiationWatts/m^2,SoftwareType,DateUTC
2013-06-27 00:03:00,75.0,71.9,29.95,SSW,194,0.0,1.0,90,0.00,,,0.00,0,Wunderground v.1.15,2013-06-27 05:03:00,
2013-06-27 00:08:00,74.9,71.8,29.94,SSW,193,1.0,2.0,90,0.00,,,0.00,0,Wunderground v.1.15,2013-06-27 05:08:00,
2013-06-27 00:18:00,75.0,71.9,29.93,South,169,2.0,2.0,90,0.00,,,0.00,0,Wunderground v.1.15,2013-06-27 05:18:00,
2013-06-27 00:23:00,74.9,71.8,29.93,South,191,2.0,2.0,90,0.00,,,0.00,0,Wunderground v.1.15,2013-06-27 05:23:00,
2013-06-27 00:33:00,75.2,72.1,29.93,SSW,213,2.0,2.0,90,0.00,,,0.00,0,Wunderground v.1.15,2013-06-27 05:33:00,
2013-06-27 00:43:00,75.1,72.0,29.93,SSW,209,2.0,2.0,90,0.00,,,0.00,0,Wunderground v.1.15,2013-06-27 05:43:00,
2013-06-27 00:48:00,74.9,71.8,29.93,SW,225,1.0,2.0,90,0.00,,,0.00,0,Wunderground v.1.15,2013-06-27 05:48:00,
2013-06-27 00:53:00,74.8,71.7,29.93,WSW,242,2.0,2.0,90,0.00,,,0.00,0,Wunderground v.1.15,2013-06-27 05:53:00,
2013-06-27 01:03:00,74.8,71.7,29.93,SW,220,1.0,2.0,90,0.00,,,0.00,0,Wunderground v.1.15,2013-06-27 06:03:00,
2013-06-27 01:13:00,74.5,71.7,29.94,West,272,1.0,1.0,91,0.00,,,0.00,0,Wunderground v.1.15,2013-06-27 06:13:00,
2013-06-27 01:18:00,74.3,71.5,29.94,West,272,0.0,1.0,91,0.00,,,0.00,0,Wunderground v.1.15,2013-06-27 06:18:00,
2013-06-27 01:28:00,73.8,71.3,29.95,West,272,0.0,0.0,92,0.00,,,0.00,0,Wunderground v.1.15,2013-06-27 06:28:00,
2013-06-27 01:38:00,73.8,71.3,29.96,West,259,0.0,0.0,92,0.00,,,0.00,0,Wunderground v.1.15,2013-06-27 06:38:00,
2013-06-27 01:48:00,74.0,71.5,29.96,WSW,243,0.0,1.0,92,0.00,,,0.00,0,Wunderground v.1.15,2013-06-27 06:48:00,
2013-06-27 01:53:00,74.2,71.4,29.96,WSW,257,1.0,1.0,91,0.00,,,0.00,0,Wunderground v.1.15,2013-06-27 06:53:00,
2013-06-27 02:03:00,74.4,71.6,29.96,NW,313,1.0,1.0,91,0.00,,,0.00,0,Wunderground v.1.15,2013-06-27 07:03:00,
2013-06-27 02:13:00,74.3,71.5,29.95,West,273,1.0,1.0,91,0.00,,,0.00,0,Wunderground v.1.15,2013-06-27 07:13:00,
2013-06-27 02:23:00,74.3,71.2,29.94,WSW,257,1.0,1.0,90,0.00,,,0.00,0,Wunderground v.1.15,2013-06-27 07:23:00,
2013-06-27 02:33:00,74.7,71.2,29.94,SW,224,2.0,2.0,89,0.00,,,0.00,0,Wunderground v.1.15,2013-06-27 07:33:00,
2013-06-27 02:43:00,74.9,71.4,29.94,WSW,254,2.0,4.0,89,0.00,,,0.00,0,Wunderground v.1.15,2013-06-27 07:43:00,
2013-06-27 02:53:00,75.2,71.1,29.93,SW,219,2.0,2.0,87,0.00,,,0.00,0,Wunderground v.1.15,2013-06-27 07:53:00,
2013-06-27 02:58:00,75.2,71.1,29.93,WSW,241,3.0,3.0,87,0.00,,,0.00,0,Wunderground v.1.15,2013-06-27 07:58:00,
2013-06-27 03:08:00,75.6,71.1,29.94,WSW,250,3.0,3.0,86,0.00,,,0.00,0,Wunderground v.1.15,2013-06-27 08:08:00,
2013-06-27 03:18:00,75.9,71.1,29.95,West,260,3.0,3.0,85,0.00,,,0.00,0,Wunderground v.1.15,2013-06-27 08:18:00,
2013-06-27 03:23:00,76.0,70.8,29.95,SW,232,3.0,3.0,84,0.00,,,0.00,0,Wunderground v.1.15,2013-06-27 08:23:00,
2013-06-27 03:33:00,76.0,70.8,29.94,SSE,155,3.0,3.0,84,0.00,,,0.00,0,Wunderground v.1.15,2013-06-27 08:33:00,
2013-06-27 03:43:00,75.9,70.7,29.94,WSW,256,3.0,7.0,84,0.00,,,0.00,0,Wunderground v.1.15,2013-06-27 08:43:00,
2013-06-27 03:48:00,75.9,70.7,29.94,West,269,4.0,7.0,84,0.00,,,0.00,0,Wunderground v.1.15,2013-06-27 08:48:00,
2013-06-27 03:58:00,75.8,71.0,29.93,WSW,242,3.0,4.0,85,0.00,,,0.00,0,Wunderground v.1.15,2013-06-27 08:58:00,
2013-06-27 04:03:00,75.7,70.9,29.93,WSW,240,3.0,5.0,85,0.00,,,0.00,0,Wunderground v.1.15,2013-06-27 09:03:00,
2013-06-27 04:13:00,75.7,71.2,29.94,West,275,5.0,8.0,86,0.00,,,0.00,0,Wunderground v.1.15,2013-06-27 09:13:00,
2013-06-27 04:23:00,72.8,69.4,29.91,SW,229,6.0,7.0,89,0.14,,,0.14,0,Wunderground v.1.15,2013-06-27 09:23:00,
2013-06-27 04:28:00,72.1,69.6,29.91,SW,215,4.0,7.0,92,0.06,,,0.14,0,Wunderground v.1.15,2013-06-27 09:28:00,
2013-06-27 04:38:00,72.3,69.8,29.89,WSW,251,5.0,8.0,92,0.04,,,0.15,0,Wunderground v.1.15,2013-06-27 09:38:00,
2013-06-27 04:43:00,71.9,69.4,29.89,WSW,245,3.0,4.0,92,0.10,,,0.16,0,Wunderground v.1.15,2013-06-27 09:43:00,
2013-06-27 04:53:00,71.0,68.9,29.88,SSW,200,3.0,9.0,93,0.12,,,0.18,0,Wunderground v.1.15,2013-06-27 09:53:00,
2013-06-27 05:03:00,70.2,68.1,29.87,West,262,4.0,12.0,93,0.05,,,0.19,0,Wunderground v.1.15,2013-06-27 10:03:00,
2013-06-27 05:13:00,69.8,68.0,29.86,WSW,255,4.0,4.0,94,0.07,,,0.20,0,Wunderground v.1.15,2013-06-27 10:13:00,
2013-06-27 05:23:00,69.5,67.7,29.86,SSE,161,2.0,2.0,94,0.05,,,0.20,0,Wunderground v.1.15,2013-06-27 10:23:00,
2013-06-27 05:28:00,69.4,67.9,29.85,WSW,250,3.0,3.0,95,0.00,,,0.20,0,Wunderground v.1.15,2013-06-27 10:28:00,
2013-06-27 05:38:00,69.3,67.5,29.86,SSW,203,3.0,4.0,94,0.00,,,0.20,0,Wunderground v.1.15,2013-06-27 10:38:00,
2013-06-27 05:48:00,69.0,67.2,29.89,ENE,67,2.0,3.0,94,0.00,,,0.20,5,Wunderground v.1.15,2013-06-27 10:48:00,
2013-06-27 05:58:00,69.1,67.6,29.92,ESE,105,4.0,4.0,95,0.00,,,0.20,7,Wunderground v.1.15,2013-06-27 10:58:00,
2013-06-27 06:08:00,69.2,68.0,29.94,NE,49,1.0,3.0,96,0.00,,,0.20,19,Wunderground v.1.15,2013-06-27 11:08:00,
2013-06-27 06:18:00,69.2,68.0,29.95,NE,44,2.0,2.0,96,0.00,,,0.20,35,Wunderground v.1.15,2013-06-27 11:18:00,
2013-06-27 06:23:00,69.2,67.7,29.94,South,173,1.0,1.0,95,0.00,,,0.20,44,Wunderground v.1.15,2013-06-27 11:23:00,
2013-06-27 06:33:00,69.2,68.0,29.94,SSW,211,1.0,2.0,96,0.00,,,0.20,65,Wunderground v.1.15,2013-06-27 11:33:00,
2013-06-27 06:38:00,69.2,68.0,29.94,South,190,1.0,2.0,96,0.00,,,0.20,81,Wunderground v.1.15,2013-06-27 11:38:00,
2013-06-27 06:48:00,69.5,68.3,29.93,South,184,1.0,1.0,96,0.00,,,0.20,118,Wunderground v.1.15,2013-06-27 11:48:00,
2013-06-27 06:53:00,69.8,68.9,29.93,South,182,0.0,2.0,97,0.00,,,0.20,149,Wunderground v.1.15,2013-06-27 11:53:00,
2013-06-27 07:03:00,70.5,69.3,29.93,SSW,213,1.0,1.0,96,0.00,,,0.20,121,Wunderground v.1.15,2013-06-27 12:03:00,
2013-06-27 07:08:00,70.9,69.7,29.92,South,173,1.0,1.0,96,0.00,,,0.20,165,Wunderground v.1.15,2013-06-27 12:08:00,
2013-06-27 07:18:00,71.1,69.6,29.93,South,186,2.0,2.0,95,0.00,,,0.20,137,Wunderground v.1.15,2013-06-27 12:18:00,
2013-06-27 07:28:00,71.0,69.2,29.93,SSW,195,1.0,7.0,94,0.00,,,0.20,30,Wunderground v.1.15,2013-06-27 12:28:00,
2013-06-27 07:33:00,70.6,68.8,29.94,WSW,239,2.0,5.0,94,0.00,,,0.20,21,Wunderground v.1.15,2013-06-27 12:33:00,
2013-06-27 07:43:00,70.3,68.8,29.93,South,188,2.0,2.0,95,0.00,,,0.20,16,Wunderground v.1.15,2013-06-27 12:43:00,
2013-06-27 07:53:00,70.0,68.5,29.93,South,190,2.0,2.0,95,0.00,,,0.20,14,Wunderground v.1.15,2013-06-27 12:53:00,
2013-06-27 08:03:00,70.1,68.6,29.93,SSW,192,3.0,3.0,95,0.00,,,0.20,14,Wunderground v.1.15,2013-06-27 13:03:00,
2013-06-27 08:08:00,70.1,68.6,29.93,SSW,192,2.0,5.0,95,0.00,,,0.20,21,Wunderground v.1.15,2013-06-27 13:08:00,
2013-06-27 08:18:00,70.2,68.7,29.92,SW,219,3.0,5.0,95,0.00,,,0.20,32,Wunderground v.1.15,2013-06-27 13:18:00,
2013-06-27 08:28:00,70.1,68.6,29.92,WSW,255,4.0,4.0,95,0.00,,,0.20,30,Wunderground v.1.15,2013-06-27 13:28:00,
2013-06-27 08:38:00,70.1,68.6,29.93,SW,232,3.0,3.0,95,0.00,,,0.20,40,Wunderground v.1.15,2013-06-27 13:38:00,
2013-06-27 08:48:00,70.5,69.0,29.93,SW,228,3.0,4.0,95,0.00,,,0.20,58,Wunderground v.1.15,2013-06-27 13:48:00,
2013-06-27 08:53:00,70.8,69.3,29.93,West,260,3.0,3.0,95,0.00,,,0.20,56,Wunderground v.1.15,2013-06-27 13:53:00,
2013-06-27 09:03:00,71.2,69.4,29.92,SW,232,3.0,3.0,94,0.00,,,0.20,102,Wunderground v.1.15,2013-06-27 14:03:00,
2013-06-27 09:13:00,71.3,69.5,29.92,SW,229,2.0,2.0,94,0.00,,,0.20,95,Wunderground v.1.15,2013-06-27 14:13:00,
2013-06-27 09:23:00,71.7,70.2,29.92,SW,229,2.0,2.0,95,0.00,,,0.20,190,Wunderground v.1.15,2013-06-27 14:23:00,
2013-06-27 09:34:00,72.4,70.6,29.92,SW,229,2.0,4.0,94,0.00,,,0.20,192,Wunderground v.1.15,2013-06-27 14:34:00,
2013-06-27 09:39:00,72.6,70.8,29.92,SSW,213,2.0,4.0,94,0.00,,,0.20,257,Wunderground v.1.15,2013-06-27 14:39:00,
2013-06-27 09:44:00,73.1,71.3,29.92,SSW,202,2.0,2.0,94,0.00,,,0.20,292,Wunderground v.1.15,2013-06-27 14:44:00,
2013-06-27 09:54:00,73.7,71.5,29.91,SW,223,3.0,3.0,93,0.00,,,0.20,341,Wunderground v.1.15,2013-06-27 14:54:00,
2013-06-27 09:59:00,74.2,72.0,29.91,SW,225,2.0,3.0,93,0.00,,,0.20,364,Wunderground v.1.15,2013-06-27 14:59:00,
2013-06-27 10:09:00,74.7,72.2,29.92,SSW,197,3.0,4.0,92,0.00,,,0.20,408,Wunderground v.1.15,2013-06-27 15:09:00,
2013-06-27 10:19:00,75.6,72.8,29.91,WNW,289,3.0,4.0,91,0.00,,,0.20,464,Wunderground v.1.15,2013-06-27 15:19:00,
2013-06-27 10:29:00,76.5,73.7,29.91,West,271,4.0,5.0,91,0.00,,,0.20,536,Wunderground v.1.15,2013-06-27 15:29:00,
2013-06-27 10:39:00,77.8,75.0,29.91,SE,124,3.0,4.0,91,0.00,,,0.20,613,Wunderground v.1.15,2013-06-27 15:39:00,
2013-06-27 10:49:00,78.7,74.5,29.91,SW,228,4.0,5.0,87,0.00,,,0.20,707,Wunderground v.1.15,2013-06-27 15:49:00,
2013-06-27 10:59:00,79.8,76.3,29.90,SSW,202,4.0,5.0,89,0.00,,,0.20,742,Wunderground v.1.15,2013-06-27 15:59:00,
2013-06-27 11:09:00,80.5,76.3,29.90,WSW,243,5.0,6.0,87,0.00,,,0.20,636,Wunderground v.1.15,2013-06-27 16:09:00,
2013-06-27 11:14:00,81.0,76.8,29.90,SW,224,5.0,5.0,87,0.00,,,0.20,807,Wunderground v.1.15,2013-06-27 16:14:00,
2013-06-27 11:19:00,81.5,77.6,29.89,West,264,5.0,7.0,88,0.00,,,0.20,780,Wunderground v.1.15,2013-06-27 16:19:00,
2013-06-27 11:29:00,81.6,77.0,29.90,SW,225,3.0,4.0,86,0.00,,,0.20,334,Wunderground v.1.15,2013-06-27 16:29:00,
2013-06-27 11:39:00,81.2,77.0,29.90,WSW,255,2.0,4.0,87,0.00,,,0.20,274,Wunderground v.1.15,2013-06-27 16:39:00,
2013-06-27 11:49:00,83.0,77.7,29.89,WNW,286,2.0,2.0,84,0.00,,,0.20,461,Wunderground v.1.15,2013-06-27 16:49:00,
2013-06-27 11:54:00,84.4,78.3,29.89,WNW,290,1.0,7.0,82,0.00,,,0.20,1046,Wunderground v.1.15,2013-06-27 16:54:00,
2013-06-27 12:04:00,84.3,77.5,29.90,WSW,237,2.0,2.0,80,0.00,,,0.20,424,Wunderground v.1.15,2013-06-27 17:04:00,
2013-06-27 12:09:00,84.8,79.1,29.89,ESE,111,2.0,2.0,83,0.00,,,0.20,410,Wunderground v.1.15,2013-06-27 17:09:00,
2013-06-27 12:19:00,85.4,80.0,29.89,West,268,3.0,4.0,84,0.00,,,0.20,1099,Wunderground v.1.15,2013-06-27 17:19:00,
2013-06-27 12:24:00,85.5,78.6,29.89,North,355,3.0,3.0,80,0.00,,,0.20,1027,Wunderground v.1.15,2013-06-27 17:24:00,
2013-06-27 12:34:00,86.7,79.4,29.89,WNW,292,2.0,4.0,79,0.00,,,0.20,947,Wunderground v.1.15,2013-06-27 17:34:00,
2013-06-27 12:39:00,86.6,78.5,29.89,WSW,258,2.0,4.0,77,0.00,,,0.20,928,Wunderground v.1.15,2013-06-27 17:39:00,
2013-06-27 12:49:00,87.4,79.3,29.88,WSW,249,3.0,3.0,77,0.00,,,0.20,287,Wunderground v.1.15,2013-06-27 17:49:00,
2013-06-27 12:59:00,87.7,78.0,29.88,WSW,244,1.0,3.0,73,0.00,,,0.20,946,Wunderground v.1.15,2013-06-27 17:59:00,
2013-06-27 13:04:00,87.7,78.8,29.88,NNW,338,2.0,2.0,75,0.00,,,0.20,974,Wunderground v.1.15,2013-06-27 18:04:00,
2013-06-27 13:14:00,87.7,77.1,29.88,NNW,332,2.0,2.0,71,0.00,,,0.20,1013,Wunderground v.1.15,2013-06-27 18:14:00,
2013-06-27 13:24:00,88.9,75.6,29.88,WNW,285,3.0,6.0,65,0.00,,,0.20,1063,Wunderground v.1.15,2013-06-27 18:24:00,
2013-06-27 13:29:00,88.7,75.9,29.88,WNW,296,3.0,6.0,66,0.00,,,0.20,1055,Wunderground v.1.15,2013-06-27 18:29:00,
2013-06-27 13:39:00,88.7,78.9,29.88,NNE,14,1.0,3.0,73,0.00,,,0.20,991,Wunderground v.1.15,2013-06-27 18:39:00,
2013-06-27 13:49:00,88.8,75.0,29.88,West,275,3.0,3.0,64,0.00,,,0.20,209,Wunderground v.1.15,2013-06-27 18:49:00,
2013-06-27 13:54:00,88.2,78.0,29.88,North,5,2.0,2.0,72,0.00,,,0.20,1028,Wunderground v.1.15,2013-06-27 18:54:00,
2013-06-27 14:04:00,88.8,77.3,29.87,NW,312,2.0,2.0,69,0.00,,,0.20,939,Wunderground v.1.15,2013-06-27 19:04:00,
2013-06-27 14:14:00,89.4,75.1,29.87,SW,220,2.0,2.0,63,0.00,,,0.20,935,Wunderground v.1.15,2013-06-27 19:14:00,
2013-06-27 14:24:00,89.3,75.0,29.87,NW,314,2.0,2.0,63,0.00,,,0.20,960,Wunderground v.1.15,2013-06-27 19:24:00,
2013-06-27 14:29:00,89.6,76.7,29.87,WNW,294,2.0,2.0,66,0.00,,,0.20,895,Wunderground v.1.15,2013-06-27 19:29:00,
2013-06-27 14:39:00,89.4,76.5,29.87,North,11,2.0,2.0,66,0.00,,,0.20,874,Wunderground v.1.15,2013-06-27 19:39:00,
2013-06-27 14:49:00,89.8,76.9,29.86,NW,308,2.0,2.0,66,0.00,,,0.20,870,Wunderground v.1.15,2013-06-27 19:49:00,
2013-06-27 14:59:00,89.7,74.9,29.86,ENE,57,2.0,2.0,62,0.00,,,0.20,865,Wunderground v.1.15,2013-06-27 19:59:00,
2013-06-27 15:09:00,89.8,75.0,29.86,NW,317,3.0,6.0,62,0.00,,,0.20,803,Wunderground v.1.15,2013-06-27 20:09:00,
2013-06-27 15:19:00,89.9,75.1,29.86,NW,326,1.0,3.0,62,0.00,,,0.20,798,Wunderground v.1.15,2013-06-27 20:19:00,
2013-06-27 15:29:00,88.6,74.9,29.86,SSW,211,2.0,2.0,64,0.00,,,0.20,770,Wunderground v.1.15,2013-06-27 20:29:00,
2013-06-27 15:34:00,89.4,76.1,29.86,East,93,1.0,1.0,65,0.00,,,0.20,751,Wunderground v.1.15,2013-06-27 20:34:00,
2013-06-27 15:44:00,89.7,75.4,29.85,WNW,302,1.0,1.0,63,0.00,,,0.20,752,Wunderground v.1.15,2013-06-27 20:44:00,
2013-06-27 15:49:00,89.5,73.3,29.85,NNW,328,1.0,1.0,59,0.00,,,0.20,320,Wunderground v.1.15,2013-06-27 20:49:00,
2013-06-27 16:04:00,89.8,74.1,29.85,NW,321,2.0,2.0,60,0.00,,,0.20,682,Wunderground v.1.15,2013-06-27 21:04:00,
2013-06-27 16:14:00,90.3,75.0,29.84,ESE,109,1.0,2.0,61,0.00,,,0.20,647,Wunderground v.1.15,2013-06-27 21:14:00,
2013-06-27 16:24:00,89.7,75.9,29.84,NNW,348,2.0,2.0,64,0.00,,,0.20,635,Wunderground v.1.15,2013-06-27 21:24:00,
2013-06-27 16:29:00,89.8,75.0,29.84,WSW,249,2.0,2.0,62,0.00,,,0.20,598,Wunderground v.1.15,2013-06-27 21:29:00,
2013-06-27 16:39:00,89.5,75.2,29.84,WSW,241,1.0,2.0,63,0.00,,,0.20,601,Wunderground v.1.15,2013-06-27 21:39:00,
2013-06-27 16:44:00,89.3,75.0,29.84,WNW,291,2.0,2.0,63,0.00,,,0.20,575,Wunderground v.1.15,2013-06-27 21:44:00,
2013-06-27 16:54:00,88.9,75.6,29.83,West,268,2.0,2.0,65,0.00,,,0.20,541,Wunderground v.1.15,2013-06-27 21:54:00,
2013-06-27 16:59:00,88.8,74.6,29.83,NW,325,1.0,2.0,63,0.00,,,0.20,489,Wunderground v.1.15,2013-06-27 21:59:00,
2013-06-27 17:09:00,88.7,75.0,29.83,SW,236,2.0,2.0,64,0.00,,,0.20,466,Wunderground v.1.15,2013-06-27 22:09:00,
2013-06-27 17:14:00,88.7,74.5,29.83,WNW,303,1.0,2.0,63,0.00,,,0.20,455,Wunderground v.1.15,2013-06-27 22:14:00,
2013-06-27 17:24:00,88.6,74.4,29.83,NW,321,1.0,1.0,63,0.00,,,0.20,432,Wunderground v.1.15,2013-06-27 22:24:00,
2013-06-27 17:29:00,88.7,75.0,29.82,North,355,1.0,1.0,64,0.00,,,0.20,411,Wunderground v.1.15,2013-06-27 22:29:00,
2013-06-27 17:39:00,88.5,74.8,29.82,NW,325,1.0,3.0,64,0.00,,,0.20,380,Wunderground v.1.15,2013-06-27 22:39:00,
2013-06-27 17:44:00,88.3,74.6,29.82,WSW,251,2.0,2.0,64,0.00,,,0.20,360,Wunderground v.1.15,2013-06-27 22:44:00,
2013-06-27 17:54:00,88.0,75.2,29.82,WSW,238,2.0,3.0,66,0.00,,,0.20,325,Wunderground v.1.15,2013-06-27 22:54:00,
2013-06-27 18:04:00,87.6,75.3,29.82,NNE,13,2.0,2.0,67,0.00,,,0.20,288,Wunderground v.1.15,2013-06-27 23:04:00,
2013-06-27 18:14:00,87.0,75.2,29.82,SSW,200,1.0,1.0,68,0.00,,,0.20,260,Wunderground v.1.15,2013-06-27 23:14:00,
2013-06-27 18:19:00,86.9,75.5,29.82,North,5,1.0,1.0,69,0.00,,,0.20,139,Wunderground v.1.15,2013-06-27 23:19:00,
2013-06-27 18:29:00,86.5,75.1,29.82,WSW,255,0.0,1.0,69,0.00,,,0.20,127,Wunderground v.1.15,2013-06-27 23:29:00,
2013-06-27 18:34:00,86.3,75.4,29.82,SSW,212,0.0,0.0,70,0.00,,,0.20,67,Wunderground v.1.15,2013-06-27 23:34:00,
2013-06-27 18:39:00,86.3,74.9,29.83,SW,225,0.0,0.0,69,0.00,,,0.20,56,Wunderground v.1.15,2013-06-27 23:39:00,
2013-06-27 18:54:00,85.9,75.0,29.82,NW,311,0.0,0.0,70,0.00,,,0.20,42,Wunderground v.1.15,2013-06-27 23:54:00,
2013-06-27 18:59:00,85.5,75.0,29.82,NE,37,0.0,0.0,71,0.00,,,0.20,39,Wunderground v.1.15,2013-06-27 23:59:00,
2013-06-27 19:09:00,85.1,73.8,29.83,NNE,22,1.0,1.0,69,0.00,,,0.20,35,Wunderground v.1.15,2013-06-28 00:09:00,
2013-06-27 19:19:00,84.7,73.0,29.83,NW,306,1.0,2.0,68,0.00,,,0.20,30,Wunderground v.1.15,2013-06-28 00:19:00,
2013-06-27 19:29:00,84.1,72.8,29.83,WNW,302,0.0,1.0,69,0.00,,,0.20,25,Wunderground v.1.15,2013-06-28 00:29:00,
2013-06-27 19:39:00,83.4,72.6,29.83,WNW,302,0.0,1.0,70,0.00,,,0.20,18,Wunderground v.1.15,2013-06-28 00:39:00,
2013-06-27 19:44:00,83.1,72.7,29.83,ENE,75,0.0,0.0,71,0.00,,,0.20,12,Wunderground v.1.15,2013-06-28 00:44:00,
2013-06-27 19:54:00,82.2,73.1,29.84,NE,39,0.0,0.0,74,0.00,,,0.20,5,Wunderground v.1.15,2013-06-28 00:54:00,
2013-06-27 20:04:00,81.3,72.6,29.84,NE,39,0.0,0.0,75,0.00,,,0.20,0,Wunderground v.1.15,2013-06-28 01:04:00,
2013-06-27 20:09:00,80.6,72.7,29.84,NE,39,0.0,0.0,77,0.00,,,0.20,0,Wunderground v.1.15,2013-06-28 01:09:00,
2013-06-27 20:19:00,80.0,72.5,29.84,NE,39,0.0,0.0,78,0.00,,,0.20,0,Wunderground v.1.15,2013-06-28 01:19:00,
2013-06-27 20:29:00,79.5,72.4,29.85,NE,39,0.0,0.0,79,0.00,,,0.20,0,Wunderground v.1.15,2013-06-28 01:29:00,
2013-06-27 20:34:00,79.2,72.5,29.85,NE,39,0.0,0.0,80,0.00,,,0.20,0,Wunderground v.1.15,2013-06-28 01:34:00,
2013-06-27 20:44:00,78.7,72.4,29.85,NE,39,0.0,0.0,81,0.00,,,0.20,0,Wunderground v.1.15,2013-06-28 01:44:00,
2013-06-27 20:54:00,78.1,72.2,29.85,NE,39,0.0,0.0,82,0.00,,,0.20,0,Wunderground v.1.15,2013-06-28 01:54:00,
2013-06-27 20:59:00,78.0,72.1,29.85,NE,39,0.0,0.0,82,0.00,,,0.20,0,Wunderground v.1.15,2013-06-28 01:59:00,
2013-06-27 21:09:00,77.4,72.5,29.84,NE,39,0.0,0.0,85,0.00,,,0.20,0,Wunderground v.1.15,2013-06-28 02:09:00,
2013-06-27 21:29:00,77.1,72.2,29.84,NE,39,0.0,0.0,85,0.00,,,0.20,0,Wunderground v.1.15,2013-06-28 02:29:00,
2013-06-27 21:34:00,77.2,72.3,29.85,NE,39,0.0,0.0,85,0.00,,,0.20,0,Wunderground v.1.15,2013-06-28 02:34:00,
2013-06-27 21:39:00,77.2,72.3,29.85,NE,39,0.0,0.0,85,0.00,,,0.20,0,Wunderground v.1.15,2013-06-28 02:39:00,
2013-06-27 21:49:00,77.0,72.1,29.85,NE,39,0.0,0.0,85,0.00,,,0.20,0,Wunderground v.1.15,2013-06-28 02:49:00,
2013-06-27 22:05:00,76.8,71.9,29.85,NE,39,0.0,0.0,85,0.00,,,0.20,0,Wunderground v.1.15,2013-06-28 03:05:00,
2013-06-27 22:14:00,76.7,71.8,29.85,NE,39,0.0,0.0,85,0.00,,,0.20,0,Wunderground v.1.15,2013-06-28 03:14:00,
2013-06-27 22:19:00,76.7,71.8,29.85,NE,36,0.0,0.0,85,0.00,,,0.20,0,Wunderground v.1.15,2013-06-28 03:19:00,
2013-06-27 22:29:00,76.7,71.8,29.85,NE,36,0.0,0.0,85,0.00,,,0.20,0,Wunderground v.1.15,2013-06-28 03:29:00,
2013-06-27 22:34:00,76.8,71.9,29.86,SW,215,0.0,1.0,85,0.00,,,0.20,0,Wunderground v.1.15,2013-06-28 03:34:00,
2013-06-27 22:44:00,76.5,71.7,29.85,SW,215,0.0,0.0,85,0.00,,,0.20,0,Wunderground v.1.15,2013-06-28 03:44:00,
2013-06-27 22:49:00,76.3,71.8,29.85,SW,215,0.0,0.0,86,0.00,,,0.20,0,Wunderground v.1.15,2013-06-28 03:49:00,
2013-06-27 23:00:00,76.0,71.5,29.85,SW,215,0.0,0.0,86,0.00,,,0.20,0,Wunderground v.1.15,2013-06-28 04:00:00,
2013-06-27 23:04:00,75.9,71.4,29.85,SW,215,0.0,0.0,86,0.00,,,0.20,0,Wunderground v.1.15,2013-06-28 04:04:00,
2013-06-27 23:09:00,75.7,71.6,29.85,SW,215,0.0,0.0,87,0.00,,,0.20,0,Wunderground v.1.15,2013-06-28 04:09:00,
2013-06-27 23:14:00,75.6,71.5,29.85,SW,215,0.0,0.0,87,0.00,,,0.20,0,Wunderground v.1.15,2013-06-28 04:14:00,
2013-06-27 23:19:00,75.4,71.6,29.85,SW,215,0.0,0.0,88,0.00,,,0.20,0,Wunderground v.1.15,2013-06-28 04:19:00,
2013-06-27 23:29:00,74.7,71.2,29.85,SW,215,0.0,0.0,89,0.00,,,0.20,0,Wunderground v.1.15,2013-06-28 04:29:00,
2013-06-27 23:39:00,74.1,71.3,29.85,SW,215,0.0,0.0,91,0.00,,,0.20,0,Wunderground v.1.15,2013-06-28 04:39:00,
2013-06-27 23:44:00,73.9,71.1,29.84,SW,215,0.0,0.0,91,0.00,,,0.20,0,Wunderground v.1.15,2013-06-28 04:44:00,
2013-06-27 23:49:00,73.7,71.2,29.84,SW,215,0.0,0.0,92,0.00,,,0.20,0,Wunderground v.1.15,2013-06-28 04:49:00,
2013-06-27 23:59:00,73.3,70.8,29.84,SW,215,0.0,0.0,92,0.00,,,0.20,0,Wunderground v.1.15,2013-06-28 04:59:00,